createdAt,value
2023-03-25T00:02:09.731Z,10.00
2023-03-25T00:04:55.473Z,9.90
2023-03-25T00:07:42.924Z,10.00
2023-03-25T00:10:28.452Z,10.00
2023-03-25T00:13:13.720Z,10.10
2023-03-25T00:15:59.585Z,10.00
2023-03-25T00:18:47.822Z,10.00
2023-03-25T00:21:33.442Z,10.00
2023-03-25T00:24:18.865Z,10.00
2023-03-25T00:27:04.293Z,10.00
2023-03-25T00:29:49.683Z,10.10
2023-03-25T00:32:35.519Z,10.00
2023-03-25T00:35:21.258Z,10.10
2023-03-25T00:38:07.712Z,10.20
2023-03-25T00:40:53.076Z,10.30
2023-03-25T00:43:39.124Z,10.20
2023-03-25T00:46:27.358Z,10.30
2023-03-25T00:49:12.896Z,10.40
2023-03-25T00:51:58.307Z,10.30
2023-03-25T00:54:43.906Z,10.30
2023-03-25T00:57:29.053Z,10.20
2023-03-25T01:00:17.117Z,10.30
2023-03-25T01:03:04.041Z,10.30
2023-03-25T01:05:50.704Z,10.40
2023-03-25T01:08:35.921Z,10.60
2023-03-25T01:11:24.682Z,10.50
2023-03-25T01:14:18.116Z,10.40
2023-03-25T01:17:03.668Z,10.40
2023-03-25T01:19:49.237Z,10.40
2023-03-25T01:22:34.570Z,10.30
2023-03-25T01:25:19.943Z,10.30
2023-03-25T01:28:05.686Z,10.30
2023-03-25T01:30:51.165Z,10.40
2023-03-25T01:33:37.000Z,10.20
2023-03-25T01:36:24.603Z,10.30
2023-03-25T01:39:10.717Z,10.20
2023-03-25T01:41:56.226Z,10.30
2023-03-25T01:44:43.872Z,10.30
2023-03-25T01:47:29.378Z,10.30
2023-03-25T01:50:15.135Z,10.30
2023-03-25T01:53:03.080Z,10.30
2023-03-25T01:55:53.030Z,10.40
2023-03-25T01:58:38.884Z,10.60
2023-03-25T02:01:26.593Z,10.60
2023-03-25T02:04:13.699Z,10.50
2023-03-25T02:06:59.522Z,10.60
2023-03-25T02:09:44.740Z,10.70
2023-03-25T02:12:30.437Z,10.60
2023-03-25T02:15:18.644Z,10.70
2023-03-25T02:18:36.120Z,10.70
2023-03-25T02:21:58.892Z,10.70
2023-03-25T02:25:13.965Z,10.70
2023-03-25T02:28:29.250Z,10.60
2023-03-25T02:31:46.489Z,10.60
2023-03-25T02:34:37.948Z,10.60
2023-03-25T02:37:50.850Z,10.60
2023-03-25T02:40:58.500Z,10.60
2023-03-25T02:43:52.217Z,10.50
2023-03-25T02:46:41.107Z,10.50
2023-03-25T02:49:38.271Z,10.60
2023-03-25T02:52:28.622Z,10.50
2023-03-25T02:55:17.761Z,10.50
2023-03-25T02:58:06.719Z,10.40
2023-03-25T03:00:53.395Z,10.40
2023-03-25T03:03:39.082Z,10.40
2023-03-25T03:06:25.667Z,10.40
2023-03-25T03:09:25.497Z,10.30
2023-03-25T03:12:48.811Z,10.10
2023-03-25T03:15:49.534Z,10.10
2023-03-25T03:18:54.356Z,10.20
2023-03-25T03:21:39.598Z,10.20
2023-03-25T03:24:30.899Z,10.10
2023-03-25T03:27:28.017Z,9.80
2023-03-25T03:30:22.304Z,9.80
2023-03-25T03:33:21.713Z,9.70
2023-03-25T03:36:13.653Z,9.70
2023-03-25T03:39:07.386Z,9.80
2023-03-25T03:41:56.980Z,9.70
2023-03-25T03:44:47.167Z,9.70
2023-03-25T03:47:37.562Z,9.60
2023-03-25T03:50:32.445Z,9.70
2023-03-25T03:53:17.821Z,9.70
2023-03-25T03:56:13.707Z,9.70
2023-03-25T03:59:02.415Z,9.70
2023-03-25T04:01:59.620Z,9.60
2023-03-25T04:04:44.888Z,9.60
2023-03-25T04:07:44.332Z,9.60
2023-03-25T04:10:59.063Z,9.60
2023-03-25T04:13:47.093Z,9.50
2023-03-25T04:16:34.704Z,9.60
2023-03-25T04:19:21.591Z,9.60
2023-03-25T04:22:07.095Z,9.60
2023-03-25T04:24:56.161Z,9.70
2023-03-25T04:27:41.696Z,9.80
2023-03-25T04:30:28.820Z,9.70
2023-03-25T04:33:14.792Z,9.60
2023-03-25T04:36:02.024Z,9.60
2023-03-25T04:38:47.714Z,9.50
2023-03-25T04:41:33.700Z,9.50
2023-03-25T04:44:21.296Z,9.50
2023-03-25T04:47:11.993Z,9.50
2023-03-25T04:49:57.105Z,9.50
2023-03-25T04:52:42.597Z,9.60
2023-03-25T04:55:29.867Z,9.60
2023-03-25T04:58:15.948Z,9.70
2023-03-25T05:01:05.950Z,9.70
2023-03-25T05:03:51.272Z,9.60
2023-03-25T05:06:38.599Z,9.50
2023-03-25T05:09:24.543Z,9.40
2023-03-25T05:12:11.311Z,9.50
2023-03-25T05:14:56.807Z,9.40
2023-03-25T05:17:43.942Z,9.30
2023-03-25T05:20:30.787Z,9.30
2023-03-25T05:23:17.835Z,9.10
2023-03-25T05:26:03.597Z,9.00
2023-03-25T05:28:51.387Z,9.00
2023-03-25T05:31:36.818Z,8.90
2023-03-25T05:34:21.945Z,8.70
2023-03-25T05:37:07.340Z,8.70
2023-03-25T05:39:52.738Z,8.60
2023-03-25T05:42:38.133Z,8.50
2023-03-25T05:45:23.504Z,8.50
2023-03-25T05:48:09.102Z,8.50
2023-03-25T05:50:56.581Z,8.70
2023-03-25T05:53:43.772Z,8.70
2023-03-25T05:56:29.436Z,8.60
2023-03-25T05:59:16.592Z,8.70
2023-03-25T06:02:02.178Z,8.80
2023-03-25T06:04:51.234Z,8.90
2023-03-25T06:07:37.513Z,9.00
2023-03-25T06:10:22.846Z,8.90
2023-03-25T06:13:08.235Z,8.70
2023-03-25T06:15:57.348Z,8.70
2023-03-25T06:18:42.584Z,8.70
2023-03-25T06:21:30.025Z,8.90
2023-03-25T06:24:16.027Z,9.00
2023-03-25T06:27:01.255Z,9.00
2023-03-25T06:29:47.230Z,9.00
2023-03-25T06:32:32.574Z,8.70
2023-03-25T06:35:20.078Z,8.60
2023-03-25T06:38:05.592Z,8.60
2023-03-25T06:40:50.987Z,8.80
2023-03-25T06:43:36.673Z,8.90
2023-03-25T06:46:21.868Z,9.00
2023-03-25T06:49:07.207Z,9.00
2023-03-25T06:51:52.619Z,9.00
2023-03-25T06:54:39.070Z,8.90
2023-03-25T06:57:24.489Z,8.90
2023-03-25T07:00:12.048Z,8.90
2023-03-25T07:02:58.603Z,8.80
2023-03-25T07:05:43.894Z,8.70
2023-03-25T07:08:29.230Z,8.70
2023-03-25T07:11:16.250Z,8.70
2023-03-25T07:14:01.796Z,8.70
2023-03-25T07:16:47.180Z,8.70
2023-03-25T07:19:32.617Z,8.70
2023-03-25T07:22:18.432Z,8.90
2023-03-25T07:25:03.617Z,8.80
2023-03-25T07:27:49.224Z,8.80
2023-03-25T07:30:34.498Z,8.80
2023-03-25T07:33:20.376Z,8.80
2023-03-25T07:36:07.001Z,8.80
2023-03-25T07:38:52.710Z,8.90
2023-03-25T07:41:39.081Z,8.70
2023-03-25T07:44:24.452Z,8.80
2023-03-25T07:47:10.329Z,8.90
2023-03-25T07:49:55.997Z,8.80
2023-03-25T07:52:41.988Z,8.80
2023-03-25T07:55:27.379Z,8.80
2023-03-25T07:58:13.294Z,8.80
2023-03-25T08:00:58.823Z,8.80
2023-03-25T08:03:44.417Z,8.70
2023-03-25T08:06:30.840Z,8.80
2023-03-25T08:09:16.382Z,8.80
2023-03-25T08:12:01.725Z,8.80
2023-03-25T08:14:47.155Z,8.80
2023-03-25T08:17:32.545Z,8.90
2023-03-25T08:20:18.411Z,8.90
2023-03-25T08:23:04.253Z,8.90
2023-03-25T08:25:50.652Z,8.90
2023-03-25T08:28:36.304Z,8.80
2023-03-25T08:31:21.962Z,8.90
2023-03-25T08:34:07.714Z,8.70
2023-03-25T08:36:53.308Z,8.70
2023-03-25T08:39:39.835Z,8.80
2023-03-25T08:42:25.560Z,8.90
2023-03-25T08:45:11.857Z,8.90
2023-03-25T08:47:57.208Z,9.00
2023-03-25T08:50:42.851Z,9.00
2023-03-25T08:53:28.026Z,9.00
2023-03-25T08:56:13.608Z,9.00
2023-03-25T08:58:58.770Z,8.80
2023-03-25T09:01:44.771Z,8.90
2023-03-25T09:04:30.851Z,9.00
2023-03-25T09:07:19.990Z,9.10
2023-03-25T09:10:07.336Z,9.20
2023-03-25T09:12:52.814Z,9.00
2023-03-25T09:15:38.261Z,9.10
2023-03-25T09:18:23.631Z,9.30
2023-03-25T09:21:09.048Z,9.40
2023-03-25T09:23:54.455Z,9.50
2023-03-25T09:26:40.688Z,9.50
2023-03-25T09:29:26.137Z,9.50
2023-03-25T09:32:11.566Z,9.40
2023-03-25T09:34:57.034Z,9.40
2023-03-25T09:37:43.472Z,9.30
2023-03-25T09:40:28.999Z,9.20
2023-03-25T09:43:33.085Z,9.30
2023-03-25T09:46:18.693Z,9.40
2023-03-25T09:49:03.865Z,9.40
2023-03-25T09:51:52.693Z,9.30
2023-03-25T09:54:44.021Z,9.50
2023-03-25T09:57:33.349Z,9.80
2023-03-25T10:00:23.807Z,10.20
2023-03-25T10:03:18.565Z,10.60
2023-03-25T10:06:19.718Z,10.90
2023-03-25T10:09:16.590Z,11.20
2023-03-25T10:12:24.529Z,11.10
2023-03-25T10:15:45.111Z,10.80
2023-03-25T10:19:15.316Z,10.70
2023-03-25T10:22:19.207Z,10.50
2023-03-25T10:25:09.855Z,10.60
2023-03-25T10:27:57.436Z,10.50
2023-03-25T10:30:48.457Z,10.30
2023-03-25T10:33:37.481Z,10.20
2023-03-25T10:36:33.066Z,10.20
2023-03-25T10:39:21.344Z,10.10
2023-03-25T10:42:20.677Z,10.10
2023-03-25T10:45:26.567Z,10.10
2023-03-25T10:48:23.314Z,10.30
2023-03-25T10:51:15.734Z,10.40
2023-03-25T10:54:01.943Z,10.40
2023-03-25T10:56:50.800Z,10.70
2023-03-25T11:00:16.490Z,10.60
2023-03-25T11:03:02.411Z,10.50
2023-03-25T11:05:48.574Z,10.50
2023-03-25T11:08:33.825Z,10.80
2023-03-25T11:11:19.361Z,11.00
2023-03-25T11:14:04.763Z,11.60
2023-03-25T11:16:56.036Z,12.10
2023-03-25T11:19:46.410Z,12.30
2023-03-25T11:22:36.169Z,12.20
2023-03-25T11:25:29.988Z,12.20
2023-03-25T11:28:40.986Z,12.10
2023-03-25T11:31:27.974Z,11.90
2023-03-25T11:34:13.151Z,11.90
2023-03-25T11:37:09.086Z,11.80
2023-03-25T11:39:56.014Z,11.70
2023-03-25T11:42:49.613Z,11.40
2023-03-25T11:45:40.228Z,11.50
2023-03-25T11:48:39.978Z,11.70
2023-03-25T11:51:32.361Z,12.10
2023-03-25T11:54:18.630Z,12.40
2023-03-25T11:57:10.772Z,12.40
2023-03-25T12:00:12.294Z,12.20
2023-03-25T12:03:04.936Z,11.90
2023-03-25T12:06:04.593Z,11.80
2023-03-25T12:08:57.868Z,11.70
2023-03-25T12:11:58.516Z,11.50
2023-03-25T12:15:04.513Z,11.40
2023-03-25T12:18:11.769Z,11.50
2023-03-25T12:21:15.634Z,11.90
2023-03-25T12:24:09.761Z,11.90
2023-03-25T12:27:23.840Z,11.50
2023-03-25T12:30:41.692Z,11.40
2023-03-25T12:33:48.321Z,11.10
2023-03-25T12:36:33.468Z,10.90
2023-03-25T12:39:43.994Z,10.80
2023-03-25T12:42:52.764Z,10.70
2023-03-25T12:45:59.533Z,10.30
2023-03-25T12:48:50.987Z,10.30
2023-03-25T12:52:15.275Z,10.40
2023-03-25T12:55:18.553Z,10.30
2023-03-25T12:58:41.096Z,10.60
2023-03-25T13:01:54.534Z,10.80
2023-03-25T13:04:39.854Z,10.80
2023-03-25T13:07:34.058Z,10.80
2023-03-25T13:10:22.550Z,10.80
2023-03-25T13:13:16.313Z,10.90
2023-03-25T13:16:07.682Z,11.00
2023-03-25T13:19:03.309Z,10.90
2023-03-25T13:21:57.338Z,10.70
2023-03-25T13:25:01.552Z,10.60
2023-03-25T13:27:49.738Z,10.70
2023-03-25T13:30:39.161Z,11.20
2023-03-25T13:33:33.004Z,11.50
2023-03-25T13:36:28.037Z,11.70
2023-03-25T13:39:18.989Z,11.90
2023-03-25T13:42:16.937Z,12.20
2023-03-25T13:45:04.400Z,12.50
2023-03-25T13:48:12.092Z,12.60
2023-03-25T13:51:02.799Z,12.60
2023-03-25T13:53:58.769Z,12.90
2023-03-25T14:00:29.308Z,12.70
2023-03-25T14:03:34.771Z,12.50
2023-03-25T14:10:15.410Z,12.40
2023-03-25T14:13:11.997Z,12.00
2023-03-25T14:16:11.303Z,11.80
2023-03-25T14:19:01.667Z,11.60
2023-03-25T14:21:51.695Z,11.40
2023-03-25T14:24:37.781Z,11.10
2023-03-25T14:27:34.110Z,11.00
2023-03-25T14:30:25.674Z,11.00
2023-03-25T14:33:11.662Z,11.00
2023-03-25T14:35:57.185Z,11.00
2023-03-25T14:38:56.452Z,11.00
2023-03-25T14:42:04.332Z,10.90
2023-03-25T14:44:54.388Z,11.20
2023-03-25T14:47:52.473Z,11.30
2023-03-25T14:50:37.843Z,11.20
2023-03-25T14:53:23.624Z,11.20
2023-03-25T14:56:17.846Z,11.00
2023-03-25T14:59:18.712Z,10.80
2023-03-25T15:02:14.033Z,11.00
2023-03-25T15:04:59.110Z,11.50
2023-03-25T15:07:51.623Z,11.80
2023-03-25T15:10:42.204Z,11.70
2023-03-25T15:13:39.334Z,11.80
2023-03-25T15:16:54.985Z,12.00
2023-03-25T15:19:58.881Z,12.00
2023-03-25T15:22:44.216Z,12.30
2023-03-25T15:25:29.799Z,12.30
2023-03-25T15:28:46.363Z,12.20
2023-03-25T15:31:55.842Z,11.90
2023-03-25T15:34:49.732Z,11.90
2023-03-25T15:37:56.677Z,12.00
2023-03-25T15:41:13.342Z,11.80
2023-03-25T15:44:24.701Z,11.80
2023-03-25T15:47:25.184Z,11.50
2023-03-25T15:50:24.711Z,11.70
2023-03-25T15:53:41.841Z,11.50
2023-03-25T15:56:34.145Z,11.30
2023-03-25T15:59:42.674Z,11.60
2023-03-25T16:02:36.026Z,11.90
2023-03-25T16:05:22.122Z,11.90
2023-03-25T16:08:15.715Z,12.00
2023-03-25T16:11:24.424Z,12.20
2023-03-25T16:14:19.016Z,12.40
2023-03-25T16:17:07.568Z,12.50
2023-03-25T16:19:55.774Z,12.50
2023-03-25T16:22:43.865Z,12.40
2023-03-25T16:25:41.630Z,12.30
2023-03-25T16:28:34.729Z,12.30
2023-03-25T16:31:34.449Z,12.30
2023-03-25T16:34:21.358Z,12.40
2023-03-25T16:37:07.805Z,12.40
2023-03-25T16:39:57.627Z,12.30
2023-03-25T16:42:43.087Z,12.40
2023-03-25T16:45:28.653Z,12.50
2023-03-25T16:48:22.566Z,12.50
2023-03-25T16:51:18.125Z,12.30
2023-03-25T16:54:10.511Z,12.20
2023-03-25T16:56:56.352Z,12.20
2023-03-25T16:59:41.932Z,12.00
2023-03-25T17:02:41.169Z,11.70
2023-03-25T17:05:29.703Z,11.60
2023-03-25T17:08:21.734Z,11.50
2023-03-25T17:11:08.913Z,11.40
2023-03-25T17:14:21.746Z,11.40
2023-03-25T17:17:14.305Z,11.40
2023-03-25T17:20:15.830Z,11.40
2023-03-25T17:23:08.407Z,11.40
2023-03-25T17:25:58.010Z,11.40
2023-03-25T17:28:59.953Z,11.40
2023-03-25T17:31:56.178Z,11.30
2023-03-25T17:34:45.405Z,11.30
2023-03-25T17:37:31.942Z,11.20
2023-03-25T17:40:25.762Z,11.20
2023-03-25T17:43:18.558Z,11.20
2023-03-25T17:46:06.268Z,11.10
2023-03-25T17:48:53.519Z,11.00
2023-03-25T17:51:40.699Z,11.00
2023-03-25T17:54:26.307Z,11.00
2023-03-25T17:57:17.384Z,10.90
2023-03-25T18:00:08.117Z,11.00
2023-03-25T18:02:53.549Z,10.90
2023-03-25T18:05:38.890Z,10.90
2023-03-25T18:08:25.501Z,11.00
2023-03-25T18:11:11.253Z,11.00
2023-03-25T18:13:56.661Z,11.10
2023-03-25T18:16:42.546Z,11.10
2023-03-25T18:19:31.136Z,10.90
2023-03-25T18:22:20.208Z,10.90
2023-03-25T18:25:06.145Z,10.90
2023-03-25T18:27:57.237Z,10.90
2023-03-25T18:31:15.813Z,10.90
2023-03-25T18:34:01.331Z,10.90
2023-03-25T18:36:47.190Z,10.80
2023-03-25T18:39:32.749Z,10.70
2023-03-25T18:42:18.013Z,10.60
2023-03-25T18:45:03.739Z,10.40
2023-03-25T18:47:49.525Z,10.50
2023-03-25T18:50:37.688Z,10.40
2023-03-25T18:53:25.583Z,10.50
2023-03-25T18:56:10.865Z,10.50
2023-03-25T18:58:56.246Z,10.50
2023-03-25T19:01:42.340Z,10.60
2023-03-25T19:04:29.444Z,10.50
2023-03-25T19:07:15.266Z,10.50
2023-03-25T19:10:00.363Z,10.50
2023-03-25T19:12:46.145Z,10.40
2023-03-25T19:15:32.270Z,10.40
2023-03-25T19:18:20.566Z,10.30
2023-03-25T19:21:06.052Z,10.30
2023-03-25T19:23:52.108Z,10.30
2023-03-25T19:26:39.234Z,10.30
2023-03-25T19:29:24.469Z,10.30
2023-03-25T19:32:09.753Z,10.20
2023-03-25T19:34:56.451Z,10.10
2023-03-25T19:37:47.425Z,10.00
2023-03-25T19:40:35.606Z,10.10
2023-03-25T19:43:20.925Z,10.00
2023-03-25T19:46:07.085Z,10.00
2023-03-25T19:48:53.135Z,10.00
2023-03-25T19:51:38.576Z,10.00
2023-03-25T19:54:23.969Z,10.00
2023-03-25T19:57:09.790Z,10.00
2023-03-25T19:59:55.334Z,10.00
2023-03-25T20:02:46.387Z,9.90
2023-03-25T20:05:32.759Z,9.80
2023-03-25T20:08:17.748Z,9.90
2023-03-25T20:11:11.829Z,9.90
2023-03-25T20:13:57.273Z,10.00
2023-03-25T20:16:42.741Z,9.90
2023-03-25T20:19:28.062Z,10.00
2023-03-25T20:22:24.197Z,10.00
2023-03-25T20:25:12.033Z,10.00
2023-03-25T20:27:57.104Z,9.90
2023-03-25T20:30:42.607Z,9.90
2023-03-25T20:33:28.108Z,10.00
2023-03-25T20:36:13.642Z,10.10
2023-03-25T20:38:59.294Z,10.00
2023-03-25T20:41:44.540Z,10.00
2023-03-25T20:44:29.878Z,10.10
2023-03-25T20:47:15.434Z,10.00
2023-03-25T20:50:00.904Z,10.10
2023-03-25T20:52:46.571Z,10.00
2023-03-25T20:55:32.185Z,9.90
2023-03-25T20:58:17.691Z,10.00
2023-03-25T21:01:03.522Z,10.00
2023-03-25T21:03:51.662Z,9.80
2023-03-25T21:06:37.316Z,9.90
2023-03-25T21:09:22.975Z,9.90
2023-03-25T21:12:08.056Z,9.90
2023-03-25T21:14:54.120Z,9.70
2023-03-25T21:17:39.530Z,9.70
2023-03-25T21:20:28.703Z,9.70
2023-03-25T21:23:14.147Z,9.70
2023-03-25T21:26:09.116Z,9.70
2023-03-25T21:28:56.492Z,9.70
2023-03-25T21:31:42.487Z,9.60
2023-03-25T21:34:30.168Z,9.50
2023-03-25T21:37:15.579Z,9.50
2023-03-25T21:40:00.880Z,9.50
2023-03-25T21:42:48.591Z,9.50
2023-03-25T21:45:35.272Z,9.50
2023-03-25T21:48:21.861Z,9.50
2023-03-25T21:51:12.120Z,9.40
2023-03-25T21:53:58.531Z,9.40
2023-03-25T21:56:43.990Z,9.40
2023-03-25T21:59:29.266Z,9.30
2023-03-25T22:02:14.834Z,9.30
2023-03-25T22:05:00.383Z,9.40
2023-03-25T22:07:45.612Z,9.40
2023-03-25T22:10:30.945Z,9.30
2023-03-25T22:13:16.232Z,9.20
2023-03-25T22:16:01.753Z,9.20
2023-03-25T22:18:48.064Z,9.20
2023-03-25T22:21:36.896Z,9.20
2023-03-25T22:24:22.374Z,9.10
2023-03-25T22:27:07.644Z,9.00
2023-03-25T22:29:52.980Z,9.00
2023-03-25T22:32:38.432Z,9.00
2023-03-25T22:35:23.903Z,9.00
2023-03-25T22:38:09.573Z,9.10
2023-03-25T22:40:55.224Z,9.10
2023-03-25T22:43:41.892Z,9.10
2023-03-25T22:46:27.416Z,9.10
2023-03-25T22:49:14.554Z,9.00
2023-03-25T22:52:01.240Z,9.10
2023-03-25T22:54:46.687Z,9.20
2023-03-25T22:57:32.244Z,9.20
2023-03-25T23:00:18.067Z,9.10
2023-03-25T23:03:03.459Z,9.10
2023-03-25T23:06:03.988Z,9.10
2023-03-25T23:08:49.899Z,9.00
2023-03-25T23:11:36.611Z,9.10
2023-03-25T23:14:22.159Z,9.30
2023-03-25T23:17:07.848Z,9.20
2023-03-25T23:19:54.059Z,9.10
2023-03-25T23:22:39.140Z,9.10
2023-03-25T23:25:24.492Z,9.10
2023-03-25T23:28:10.292Z,9.10
2023-03-25T23:30:55.707Z,9.20
2023-03-25T23:33:41.673Z,9.00
2023-03-25T23:36:28.333Z,9.10
2023-03-25T23:39:17.055Z,9.10
2023-03-25T23:42:02.540Z,9.00
2023-03-25T23:44:48.564Z,8.90
2023-03-25T23:47:33.619Z,9.00
2023-03-25T23:50:19.345Z,9.00
2023-03-25T23:53:04.509Z,9.00
2023-03-25T23:55:53.242Z,9.10
2023-03-25T23:58:40.813Z,9.10
